KBVO

Bartlesville Municipal Airport

Bartlesville, Oklahoma, USA
METAR KBVO 151853Z AUTO 02013KT 5SM -SN BR OVC017 M03/M05 A2992 RMK AO2 UPE1756B33E42SNB42 SLP136 P0000 T10281050
Observed Flight Rules
Feb-15 @ 18:53 UTC (17 minutes ago) Marginal Visual Flight Rules
Wind Visibility Clouds Conditions
20° at 13 knots 5 miles
  • Overcast at 1,700' AGL
  • Light Snow
  • Mist
Temperatures Readings Precipitation
Current -3°C / 27°F
Dewpoint -5°C / 23°F
Humidity 86%
Altimeter 29.92" Hg
Pressure 1013.6 hPa
Elevation 210
Current Rain 0.01
METAR KBVO 151853Z AUTO 02013KT 5SM -SN BR OVC017 M03/M05 A2992 RMK AO2 UPE1756B33E42SNB42 SLP136 P0000 T10281050
Observed Flight Rules
Feb-15 @ 18:53 UTC
(17 minutes ago)
MVFR
Wind Visibility
20° at 13 knots 5 miles
Clouds
  • Overcast at 1,700' AGL
Conditions
  • Light Snow
  • Mist
Temperature Dewpoint
-3°C / 27°F -5°C / 23°F
Humidity Altimeter Pressure
86% 29.92" Hg 1013.6 hPa
Current Rain
0.01